createdAt,value
2022-11-28T00:02:00.848Z,146.55
2022-11-28T00:04:29.472Z,174.00
2022-11-28T00:06:59.304Z,146.70
2022-11-28T00:09:28.131Z,151.02
2022-11-28T00:11:56.712Z,135.95
2022-11-28T00:14:25.699Z,138.13
2022-11-28T00:16:54.062Z,135.57
2022-11-28T00:19:22.879Z,139.63
2022-11-28T00:21:51.344Z,149.75
2022-11-28T00:24:20.416Z,156.40
2022-11-28T00:26:48.891Z,129.88
2022-11-28T00:29:17.544Z,164.80
2022-11-28T00:31:45.949Z,128.93
2022-11-28T00:34:16.025Z,138.52
2022-11-28T00:36:46.125Z,122.28
2022-11-28T00:39:16.793Z,135.13
2022-11-28T00:41:45.422Z,121.13
2022-11-28T00:44:14.498Z,136.82
2022-11-28T00:46:44.570Z,116.20
2022-11-28T00:49:13.936Z,120.32
2022-11-28T00:51:42.496Z,119.18
2022-11-28T00:54:11.173Z,122.35
2022-11-28T00:56:40.764Z,122.93
2022-11-28T00:59:09.829Z,126.38
2022-11-28T01:01:41.533Z,119.80
2022-11-28T01:07:04.013Z,110.78
2022-11-28T01:09:32.706Z,111.45
2022-11-28T01:12:02.079Z,125.63
2022-11-28T01:14:30.840Z,112.50
2022-11-28T01:16:59.407Z,134.10
2022-11-28T01:19:28.376Z,129.13
2022-11-28T01:21:56.920Z,117.28
2022-11-28T01:25:01.613Z,145.52
2022-11-28T01:27:30.240Z,123.03
2022-11-28T01:29:58.986Z,127.50
2022-11-28T01:32:27.486Z,129.45
2022-11-28T01:34:56.604Z,159.73
2022-11-28T01:37:24.976Z,164.35
2022-11-28T01:39:53.970Z,142.20
2022-11-28T01:42:23.767Z,186.48
2022-11-28T01:44:52.479Z,181.68
2022-11-28T01:47:27.144Z,162.23
2022-11-28T01:49:56.304Z,172.35
2022-11-28T01:52:24.980Z,173.23
2022-11-28T01:54:57.947Z,183.00
2022-11-28T01:57:28.085Z,171.68
2022-11-28T02:00:22.518Z,185.25
2022-11-28T02:03:04.652Z,170.00
2022-11-28T02:05:33.919Z,172.75
2022-11-28T02:08:02.649Z,212.77
2022-11-28T02:11:24.596Z,218.38
2022-11-28T02:14:11.690Z,141.13
2022-11-28T02:17:16.358Z,138.80
2022-11-28T02:19:51.836Z,155.65
2022-11-28T02:26:11.327Z,210.77
2022-11-28T02:28:58.832Z,161.18
2022-11-28T02:32:02.003Z,186.82
2022-11-28T02:34:56.092Z,215.15
2022-11-28T02:37:40.883Z,156.27
2022-11-28T02:40:22.113Z,138.93
2022-11-28T02:43:21.831Z,142.85
2022-11-28T02:46:14.969Z,188.63
2022-11-28T02:48:55.496Z,123.70
2022-11-28T02:51:31.057Z,144.30
2022-11-28T02:54:01.802Z,148.25
2022-11-28T02:56:30.799Z,130.43
2022-11-28T02:58:59.374Z,134.23
2022-11-28T03:02:00.439Z,148.70
2022-11-28T03:05:18.274Z,208.90
2022-11-28T03:10:56.236Z,135.93
2022-11-28T03:13:36.574Z,186.05
2022-11-28T03:16:43.541Z,152.10
2022-11-28T03:19:25.680Z,167.82
2022-11-28T03:22:07.748Z,168.55
2022-11-28T03:24:58.415Z,159.88
2022-11-28T03:27:39.823Z,167.95
2022-11-28T03:30:21.996Z,166.20
2022-11-28T03:32:53.517Z,149.73
2022-11-28T03:35:27.919Z,193.38
2022-11-28T03:38:03.282Z,231.32
2022-11-28T03:40:40.617Z,135.18
2022-11-28T03:43:14.869Z,169.40
2022-11-28T03:46:13.412Z,201.20
2022-11-28T03:48:48.623Z,151.02
2022-11-28T03:51:22.433Z,218.90
2022-11-28T03:53:57.143Z,155.07
2022-11-28T03:56:38.439Z,133.05
2022-11-28T03:59:18.929Z,161.38
2022-11-28T04:02:24.376Z,183.68
2022-11-28T04:05:09.555Z,171.98
2022-11-28T04:07:47.805Z,227.27
2022-11-28T04:10:23.275Z,181.43
2022-11-28T04:13:26.512Z,186.73
2022-11-28T04:16:09.707Z,168.15
2022-11-28T04:18:48.502Z,178.15
2022-11-28T04:21:27.756Z,136.07
2022-11-28T04:24:03.007Z,125.30
2022-11-28T04:26:35.661Z,165.23
2022-11-28T04:29:11.086Z,205.32
2022-11-28T04:31:41.431Z,166.68
2022-11-28T04:34:23.644Z,218.82
2022-11-28T04:36:54.273Z,267.23
2022-11-28T04:39:26.655Z,183.50
2022-11-28T04:42:05.719Z,195.95
2022-11-28T04:44:37.962Z,205.75
2022-11-28T04:49:35.115Z,161.82
2022-11-28T04:52:20.343Z,181.75
2022-11-28T04:55:01.173Z,172.88
2022-11-28T04:57:35.727Z,165.30
2022-11-28T05:00:12.211Z,182.65
2022-11-28T05:02:42.481Z,162.10
2022-11-28T05:05:16.750Z,157.65
2022-11-28T05:07:52.789Z,184.25
2022-11-28T05:10:35.940Z,123.35
2022-11-28T05:13:05.485Z,186.05
2022-11-28T05:15:33.853Z,202.70
2022-11-28T05:18:02.856Z,133.30
2022-11-28T05:20:31.687Z,134.52
2022-11-28T05:23:07.780Z,126.90
2022-11-28T05:25:39.688Z,106.40
2022-11-28T05:28:09.095Z,124.10
2022-11-28T05:30:37.314Z,127.72
2022-11-28T05:33:07.332Z,142.35
2022-11-28T05:35:38.767Z,113.90
2022-11-28T05:38:12.190Z,141.07
2022-11-28T05:45:28.057Z,107.00
2022-11-28T05:49:06.303Z,136.27
2022-11-28T05:52:00.408Z,147.05
2022-11-28T05:59:00.015Z,107.25
2022-11-28T06:26:57.340Z,138.93
2022-11-28T06:29:31.289Z,138.70
2022-11-28T06:32:21.699Z,172.50
2022-11-28T06:35:15.717Z,218.85
2022-11-28T06:37:58.342Z,175.57
2022-11-28T08:38:49.920Z,118.13
2022-11-28T09:53:21.203Z,103.95
2022-11-28T09:59:28.601Z,78.60
2022-11-28T10:02:04.843Z,67.85
2022-11-28T10:04:52.220Z,69.82
2022-11-28T10:07:23.810Z,71.85
2022-11-28T10:10:10.383Z,68.25
2022-11-28T10:12:54.479Z,71.72
2022-11-28T10:15:38.207Z,69.88
2022-11-28T10:18:30.973Z,71.10
2022-11-28T10:23:43.861Z,69.72
2022-11-28T10:26:27.180Z,67.47
2022-11-28T10:29:00.345Z,63.90
2022-11-28T10:31:35.279Z,63.75
2022-11-28T10:34:34.904Z,72.97
2022-11-28T10:37:32.711Z,77.28
2022-11-28T10:40:32.163Z,66.00
2022-11-28T10:43:29.254Z,59.45
2022-11-28T10:46:16.199Z,56.88
2022-11-28T10:49:17.968Z,55.63
2022-11-28T10:52:20.756Z,53.13
2022-11-28T10:55:17.440Z,48.67
2022-11-28T10:57:55.253Z,48.72
2022-11-28T11:00:23.850Z,53.10
2022-11-28T11:02:55.416Z,52.03
2022-11-28T11:05:32.991Z,51.83
2022-11-28T11:08:22.852Z,58.35
2022-11-28T11:11:19.290Z,44.40
2022-11-28T11:14:07.406Z,46.03
2022-11-28T11:16:59.744Z,49.00
2022-11-28T11:19:34.784Z,46.97
2022-11-28T11:22:21.124Z,50.83
2022-11-28T11:25:17.327Z,43.58
2022-11-28T11:27:54.986Z,53.95
2022-11-28T11:30:27.484Z,57.85
2022-11-28T11:32:58.024Z,59.75
2022-11-28T11:35:48.267Z,60.65
2022-11-28T11:38:22.947Z,55.40
2022-11-28T11:40:52.559Z,52.80
2022-11-28T11:43:39.306Z,48.60
2022-11-28T11:46:13.227Z,48.70
2022-11-28T11:48:42.619Z,43.97
2022-11-28T11:51:36.614Z,44.47
2022-11-28T11:54:17.979Z,41.03
2022-11-28T11:57:00.740Z,41.42
2022-11-28T12:02:41.067Z,43.38
2022-11-28T12:05:13.645Z,47.22
2022-11-28T12:07:54.242Z,41.30
2022-11-28T12:10:26.514Z,47.40
2022-11-28T12:12:55.476Z,47.35
2022-11-28T12:16:00.439Z,46.28
2022-11-28T12:19:07.254Z,55.65
2022-11-28T12:22:13.414Z,42.50
2022-11-28T12:24:48.764Z,43.53
2022-11-28T12:27:51.187Z,42.88
2022-11-28T12:30:39.108Z,45.22
2022-11-28T12:33:36.502Z,47.60
2022-11-28T12:36:14.905Z,45.38
2022-11-28T12:39:25.440Z,45.28
2022-11-28T12:42:06.144Z,53.03
2022-11-28T12:45:05.447Z,48.22
2022-11-28T12:47:48.846Z,45.95
2022-11-28T12:51:08.281Z,44.72
2022-11-28T12:53:48.581Z,44.40
2022-11-28T12:56:29.101Z,42.13
2022-11-28T12:59:22.595Z,41.65
2022-11-28T13:02:16.284Z,44.67
2022-11-28T13:05:29.482Z,42.42
2022-11-28T13:08:17.268Z,42.45
2022-11-28T13:10:54.274Z,42.80
2022-11-28T13:13:32.807Z,40.33
2022-11-28T13:16:30.790Z,43.25
2022-11-28T13:19:09.118Z,42.30
2022-11-28T13:21:55.398Z,43.67
2022-11-28T13:24:34.168Z,44.17
2022-11-28T13:27:17.216Z,45.42
2022-11-28T13:30:12.641Z,44.50
2022-11-28T13:32:57.936Z,45.80
2022-11-28T13:35:28.578Z,47.78
2022-11-28T13:38:36.193Z,47.90
2022-11-28T13:41:43.329Z,43.45
2022-11-28T13:44:17.925Z,50.47
2022-11-28T13:46:46.861Z,47.88
2022-11-28T13:49:26.911Z,59.38
2022-11-28T13:52:18.298Z,52.20
2022-11-28T13:54:55.987Z,61.75
2022-11-28T13:57:44.246Z,55.92
2022-11-28T14:00:19.159Z,55.50
2022-11-28T14:02:56.068Z,67.13
2022-11-28T14:05:36.194Z,56.83
2022-11-28T14:08:07.452Z,56.88
2022-11-28T14:11:14.929Z,59.13
2022-11-28T14:14:08.083Z,61.92
2022-11-28T14:16:58.448Z,73.45
2022-11-28T14:19:55.586Z,64.82
2022-11-28T14:22:33.961Z,67.28
2022-11-28T14:25:11.026Z,61.85
2022-11-28T14:27:47.492Z,72.30
2022-11-28T14:30:43.627Z,66.90
2022-11-28T14:33:31.045Z,56.58
2022-11-28T14:36:34.380Z,54.55
2022-11-28T14:39:12.276Z,56.97
2022-11-28T14:42:02.751Z,62.67
2022-11-28T14:45:00.777Z,65.35
2022-11-28T14:47:39.656Z,64.43
2022-11-28T14:50:13.675Z,56.22
2022-11-28T14:53:34.111Z,54.88
2022-11-28T15:00:44.078Z,56.90
2022-11-28T15:03:44.970Z,58.42
2022-11-28T15:06:40.496Z,55.45
2022-11-28T15:09:38.349Z,51.28
2022-11-28T15:13:08.129Z,67.13
2022-11-28T15:15:28.509Z,60.45
2022-11-28T15:18:02.030Z,126.32
2022-11-28T15:20:46.732Z,116.95
2022-11-28T15:24:01.663Z,65.20
2022-11-28T15:27:24.591Z,75.60
2022-11-28T15:30:26.761Z,72.13
2022-11-28T15:34:20.542Z,64.63
2022-11-28T15:37:13.232Z,69.68
2022-11-28T15:39:43.087Z,71.20
2022-11-28T15:42:38.995Z,65.80
2022-11-28T15:45:30.159Z,73.25
2022-11-28T15:47:59.418Z,69.22
2022-11-28T15:50:30.272Z,65.97
2022-11-28T15:53:05.005Z,70.63
2022-11-28T15:55:34.780Z,73.65
2022-11-28T15:58:12.555Z,79.35
2022-11-28T16:00:48.933Z,61.95
2022-11-28T16:03:33.102Z,66.63
2022-11-28T16:06:03.320Z,63.08
2022-11-28T16:09:23.604Z,78.00
2022-11-28T16:11:54.049Z,64.70
2022-11-28T16:14:48.468Z,66.07
2022-11-28T16:17:23.956Z,81.38
2022-11-28T16:19:54.483Z,80.43
2022-11-28T16:22:29.405Z,64.70
2022-11-28T16:25:11.208Z,65.47
2022-11-28T16:27:45.733Z,61.67
2022-11-28T16:30:23.751Z,63.63
2022-11-28T16:33:06.879Z,63.90
2022-11-28T16:35:41.725Z,60.00
2022-11-28T16:38:33.487Z,65.97
2022-11-28T16:44:44.909Z,74.53
2022-11-28T16:48:30.372Z,65.07
2022-11-28T16:52:13.904Z,73.93
2022-11-28T16:58:40.987Z,72.72
2022-11-28T17:01:10.496Z,66.13
2022-11-28T17:06:48.379Z,70.15
2022-11-28T17:10:40.263Z,121.22
2022-11-28T17:13:27.721Z,82.47
2022-11-28T17:15:55.908Z,92.18
2022-11-28T17:18:39.151Z,82.32
2022-11-28T17:21:43.816Z,62.88
2022-11-28T17:24:39.368Z,90.45
2022-11-28T17:27:32.201Z,83.32
2022-11-28T17:30:26.699Z,99.53
2022-11-28T17:32:57.110Z,73.38
2022-11-28T17:35:30.304Z,70.07
2022-11-28T17:37:59.091Z,85.97
2022-11-28T17:43:26.369Z,75.22
2022-11-28T17:45:58.437Z,73.95
2022-11-28T17:48:27.140Z,75.88
2022-11-28T17:51:20.905Z,69.07
2022-11-28T17:54:18.015Z,72.78
2022-11-28T17:56:49.743Z,68.45
2022-11-28T17:59:24.182Z,71.38
2022-11-28T18:01:55.747Z,77.88
2022-11-28T18:04:54.800Z,90.65
2022-11-28T18:07:24.334Z,71.57
2022-11-28T18:09:53.207Z,99.32
2022-11-28T18:12:22.511Z,85.53
2022-11-28T18:14:51.136Z,98.20
2022-11-28T18:17:19.413Z,80.00
2022-11-28T18:19:47.964Z,69.80
2022-11-28T18:22:17.264Z,67.30
2022-11-28T18:24:46.088Z,71.88
2022-11-28T18:27:14.383Z,88.28
2022-11-28T18:29:43.527Z,64.15
2022-11-28T18:32:12.245Z,70.88
2022-11-28T18:34:41.238Z,72.97
2022-11-28T18:37:11.067Z,83.63
2022-11-28T18:39:39.632Z,95.20
2022-11-28T18:42:55.375Z,75.25
2022-11-28T18:45:51.551Z,62.95
2022-11-28T18:48:20.146Z,64.90
2022-11-28T18:50:49.370Z,65.38
2022-11-28T18:53:35.007Z,70.65
2022-11-28T18:56:36.941Z,61.90
2022-11-28T18:59:15.940Z,64.05
2022-11-28T19:01:48.620Z,84.22
2022-11-28T19:04:46.068Z,81.18
2022-11-28T19:07:15.144Z,65.95
2022-11-28T19:09:48.545Z,60.08
2022-11-28T19:12:48.332Z,66.32
2022-11-28T19:15:19.671Z,62.97
2022-11-28T19:17:48.333Z,61.17
2022-11-28T19:20:17.609Z,55.78
2022-11-28T19:22:46.784Z,60.92
2022-11-28T19:25:15.602Z,57.88
2022-11-28T19:27:44.646Z,59.05
2022-11-28T19:30:13.754Z,59.17
2022-11-28T19:32:42.459Z,58.45
2022-11-28T19:35:10.929Z,60.72
2022-11-28T19:37:41.560Z,56.13
2022-11-28T19:40:10.453Z,54.38
2022-11-28T19:42:40.272Z,62.20
2022-11-28T19:45:09.849Z,63.85
2022-11-28T19:47:38.779Z,70.90
2022-11-28T19:50:09.063Z,63.88
2022-11-28T19:52:38.396Z,62.10
2022-11-28T19:55:07.909Z,75.85
2022-11-28T19:58:03.572Z,73.10
2022-11-28T20:00:34.946Z,60.72
2022-11-28T20:03:04.528Z,56.15
2022-11-28T20:05:35.294Z,113.30
2022-11-28T20:12:25.721Z,97.55
2022-11-28T20:14:58.303Z,56.13
2022-11-28T20:20:22.231Z,48.13
2022-11-28T20:22:51.727Z,57.75
2022-11-28T20:25:21.116Z,57.45
2022-11-28T20:27:51.513Z,66.72
2022-11-28T20:30:20.721Z,73.82
2022-11-28T20:33:15.945Z,65.45
2022-11-28T20:35:44.521Z,61.63
2022-11-28T20:38:12.874Z,69.60
2022-11-28T20:40:41.486Z,58.55
2022-11-28T20:44:01.196Z,64.82
2022-11-28T20:46:33.719Z,75.78
2022-11-28T20:51:34.167Z,65.35
2022-11-28T20:54:14.091Z,63.65
2022-11-28T20:59:33.160Z,60.80
2022-11-28T21:02:02.402Z,56.40
2022-11-28T21:04:31.794Z,75.65
2022-11-28T21:07:00.383Z,62.63
2022-11-28T21:09:28.658Z,70.43
2022-11-28T21:11:58.892Z,73.50
2022-11-28T21:14:29.402Z,58.20
2022-11-28T21:17:01.909Z,60.15
2022-11-28T21:19:31.316Z,60.80
2022-11-28T21:22:08.588Z,57.60
2022-11-28T21:25:02.307Z,55.08
2022-11-28T21:27:31.503Z,54.47
2022-11-28T21:29:59.895Z,51.95
2022-11-28T21:32:28.918Z,54.75
2022-11-28T21:35:02.579Z,54.58
2022-11-28T21:37:33.513Z,59.78
2022-11-28T21:40:02.026Z,55.28
2022-11-28T21:42:57.894Z,60.05
2022-11-28T21:45:26.733Z,63.03
2022-11-28T21:47:55.554Z,62.78
2022-11-28T21:50:24.003Z,56.33
2022-11-28T21:52:53.034Z,58.75
2022-11-28T21:55:46.136Z,51.40
2022-11-28T21:58:16.144Z,57.95
2022-11-28T22:00:53.679Z,55.85
2022-11-28T22:03:25.696Z,58.42
2022-11-28T22:06:04.179Z,59.63
2022-11-28T22:08:33.919Z,57.50
2022-11-28T22:14:00.711Z,51.28
2022-11-28T22:16:29.653Z,53.80
2022-11-28T22:19:01.034Z,57.28
2022-11-28T22:21:51.262Z,59.17
2022-11-28T22:24:18.359Z,53.95
2022-11-28T22:26:46.563Z,53.25
2022-11-28T22:29:15.259Z,51.78
2022-11-28T22:31:44.243Z,52.72
2022-11-28T22:39:24.397Z,56.03
2022-11-28T22:41:53.027Z,58.70
2022-11-28T22:44:22.315Z,50.97
2022-11-28T22:46:50.747Z,51.10
2022-11-28T22:49:20.618Z,55.33
2022-11-28T22:51:49.225Z,51.88
2022-11-28T22:54:18.138Z,51.30
2022-11-28T22:56:46.516Z,51.70
2022-11-28T22:59:16.270Z,53.55
2022-11-28T23:01:46.022Z,49.65
2022-11-28T23:04:14.552Z,45.83
2022-11-28T23:06:43.075Z,50.05
2022-11-28T23:09:14.140Z,48.97
2022-11-28T23:11:42.733Z,51.42
2022-11-28T23:14:15.563Z,48.00
2022-11-28T23:16:45.271Z,51.28
2022-11-28T23:19:18.686Z,53.13
2022-11-28T23:21:49.855Z,50.83
2022-11-28T23:24:23.002Z,50.38
2022-11-28T23:26:52.643Z,52.35
2022-11-28T23:29:21.423Z,50.35
2022-11-28T23:31:50.687Z,49.53
2022-11-28T23:34:19.571Z,47.72
2022-11-28T23:36:49.036Z,49.15
2022-11-28T23:39:20.411Z,49.95
2022-11-28T23:44:19.916Z,47.90
2022-11-28T23:46:48.878Z,47.85
2022-11-28T23:49:17.556Z,47.53
2022-11-28T23:51:46.139Z,48.35
2022-11-28T23:54:14.900Z,49.22
2022-11-28T23:56:43.438Z,52.55
2022-11-28T23:59:12.991Z,46.85
